sensor_id;sensor_type;location;lat;lon;timestamp;P1;durP1;ratioP1;P2;durP2;ratioP2
68365;SDS011;55283;51.466;5.478;2023-02-19T00:01:08;5.63;;;4.93;;
68365;SDS011;55283;51.466;5.478;2023-02-19T00:03:38;7.07;;;5.00;;
68365;SDS011;55283;51.466;5.478;2023-02-19T00:06:05;6.63;;;5.27;;
68365;SDS011;55283;51.466;5.478;2023-02-19T00:08:33;6.68;;;5.00;;
68365;SDS011;55283;51.466;5.478;2023-02-19T00:11:06;6.65;;;5.22;;
68365;SDS011;55283;51.466;5.478;2023-02-19T00:13:36;6.30;;;5.30;;
68365;SDS011;55283;51.466;5.478;2023-02-19T00:16:07;6.40;;;5.20;;
68365;SDS011;55283;51.466;5.478;2023-02-19T00:18:40;5.93;;;4.88;;
68365;SDS011;55283;51.466;5.478;2023-02-19T00:21:07;6.30;;;5.10;;
68365;SDS011;55283;51.466;5.478;2023-02-19T00:23:33;6.03;;;4.97;;
68365;SDS011;55283;51.466;5.478;2023-02-19T00:26:06;6.13;;;5.10;;
68365;SDS011;55283;51.466;5.478;2023-02-19T00:28:33;5.95;;;4.90;;
68365;SDS011;55283;51.466;5.478;2023-02-19T00:33:41;7.35;;;5.00;;
68365;SDS011;55283;51.466;5.478;2023-02-19T00:36:06;5.60;;;4.80;;
68365;SDS011;55283;51.466;5.478;2023-02-19T00:38:34;5.93;;;4.87;;
68365;SDS011;55283;51.466;5.478;2023-02-19T00:41:01;5.97;;;4.85;;
68365;SDS011;55283;51.466;5.478;2023-02-19T00:43:43;5.45;;;4.75;;
68365;SDS011;55283;51.466;5.478;2023-02-19T00:46:09;5.88;;;4.45;;
68365;SDS011;55283;51.466;5.478;2023-02-19T00:48:35;5.90;;;4.70;;
68365;SDS011;55283;51.466;5.478;2023-02-19T00:51:00;5.63;;;4.60;;
68365;SDS011;55283;51.466;5.478;2023-02-19T00:53:26;5.37;;;4.20;;
68365;SDS011;55283;51.466;5.478;2023-02-19T00:55:51;6.50;;;4.80;;
68365;SDS011;55283;51.466;5.478;2023-02-19T00:58:16;5.57;;;4.80;;
68365;SDS011;55283;51.466;5.478;2023-02-19T01:00:42;6.73;;;5.00;;
68365;SDS011;55283;51.466;5.478;2023-02-19T01:03:07;5.57;;;4.77;;
68365;SDS011;55283;51.466;5.478;2023-02-19T01:05:32;6.17;;;4.67;;
68365;SDS011;55283;51.466;5.478;2023-02-19T01:07:58;5.47;;;4.40;;
68365;SDS011;55283;51.466;5.478;2023-02-19T01:10:23;4.83;;;4.20;;
68365;SDS011;55283;51.466;5.478;2023-02-19T01:12:48;6.00;;;4.33;;
68365;SDS011;55283;51.466;5.478;2023-02-19T01:15:14;5.43;;;4.28;;
68365;SDS011;55283;51.466;5.478;2023-02-19T01:17:39;5.47;;;4.47;;
68365;SDS011;55283;51.466;5.478;2023-02-19T01:20:05;5.27;;;4.53;;
68365;SDS011;55283;51.466;5.478;2023-02-19T01:22:30;5.78;;;4.50;;
68365;SDS011;55283;51.466;5.478;2023-02-19T01:24:56;4.50;;;3.97;;
68365;SDS011;55283;51.466;5.478;2023-02-19T01:27:21;5.70;;;4.03;;
68365;SDS011;55283;51.466;5.478;2023-02-19T01:29:47;5.43;;;4.30;;
68365;SDS011;55283;51.466;5.478;2023-02-19T01:32:12;5.57;;;4.37;;
68365;SDS011;55283;51.466;5.478;2023-02-19T01:34:37;4.40;;;3.80;;
68365;SDS011;55283;51.466;5.478;2023-02-19T01:37:03;4.77;;;4.03;;
68365;SDS011;55283;51.466;5.478;2023-02-19T01:39:29;4.97;;;4.25;;
68365;SDS011;55283;51.466;5.478;2023-02-19T01:41:55;5.63;;;3.90;;
68365;SDS011;55283;51.466;5.478;2023-02-19T01:46:45;5.20;;;3.93;;
68365;SDS011;55283;51.466;5.478;2023-02-19T01:50:13;4.90;;;3.90;;
68365;SDS011;55283;51.466;5.478;2023-02-19T01:52:20;5.95;;;4.00;;
68365;SDS011;55283;51.466;5.478;2023-02-19T01:54:50;4.90;;;3.90;;
68365;SDS011;55283;51.466;5.478;2023-02-19T01:57:20;4.68;;;3.88;;
68365;SDS011;55283;51.466;5.478;2023-02-19T01:59:50;4.65;;;3.75;;
68365;SDS011;55283;51.466;5.478;2023-02-19T02:02:28;4.97;;;3.43;;
68365;SDS011;55283;51.466;5.478;2023-02-19T02:04:54;4.93;;;3.67;;
68365;SDS011;55283;51.466;5.478;2023-02-19T02:07:21;4.27;;;3.70;;
68365;SDS011;55283;51.466;5.478;2023-02-19T02:10:06;5.68;;;3.72;;
68365;SDS011;55283;51.466;5.478;2023-02-19T02:12:44;5.72;;;3.70;;
68365;SDS011;55283;51.466;5.478;2023-02-19T02:15:09;5.10;;;3.50;;
68365;SDS011;55283;51.466;5.478;2023-02-19T02:20:26;4.82;;;3.60;;
68365;SDS011;55283;51.466;5.478;2023-02-19T02:31:18;4.90;;;3.20;;
68365;SDS011;55283;51.466;5.478;2023-02-19T02:36:37;4.65;;;3.10;;
68365;SDS011;55283;51.466;5.478;2023-02-19T02:39:07;5.13;;;3.42;;
68365;SDS011;55283;51.466;5.478;2023-02-19T02:41:39;4.53;;;3.20;;
68365;SDS011;55283;51.466;5.478;2023-02-19T02:44:08;4.70;;;3.38;;
68365;SDS011;55283;51.466;5.478;2023-02-19T02:46:34;4.93;;;3.70;;
68365;SDS011;55283;51.466;5.478;2023-02-19T02:49:08;4.53;;;3.15;;
68365;SDS011;55283;51.466;5.478;2023-02-19T02:51:44;4.07;;;3.25;;
68365;SDS011;55283;51.466;5.478;2023-02-19T02:54:19;4.07;;;3.00;;
68365;SDS011;55283;51.466;5.478;2023-02-19T02:57:06;3.72;;;2.95;;
68365;SDS011;55283;51.466;5.478;2023-02-19T02:59:36;3.70;;;2.70;;
68365;SDS011;55283;51.466;5.478;2023-02-19T03:02:22;4.43;;;2.90;;
68365;SDS011;55283;51.466;5.478;2023-02-19T03:04:56;4.18;;;3.05;;
68365;SDS011;55283;51.466;5.478;2023-02-19T03:13:02;4.25;;;3.10;;
68365;SDS011;55283;51.466;5.478;2023-02-19T03:15:54;4.47;;;2.90;;
68365;SDS011;55283;51.466;5.478;2023-02-19T03:18:42;4.43;;;3.03;;
68365;SDS011;55283;51.466;5.478;2023-02-19T03:21:30;4.53;;;3.00;;
68365;SDS011;55283;51.466;5.478;2023-02-19T03:23:59;4.38;;;3.10;;
68365;SDS011;55283;51.466;5.478;2023-02-19T03:26:43;5.60;;;3.28;;
68365;SDS011;55283;51.466;5.478;2023-02-19T03:29:10;4.77;;;2.80;;
68365;SDS011;55283;51.466;5.478;2023-02-19T03:31:54;5.13;;;2.80;;
68365;SDS011;55283;51.466;5.478;2023-02-19T03:34:33;4.63;;;2.72;;
68365;SDS011;55283;51.466;5.478;2023-02-19T03:37:03;5.20;;;2.80;;
68365;SDS011;55283;51.466;5.478;2023-02-19T03:39:34;4.38;;;2.90;;
68365;SDS011;55283;51.466;5.478;2023-02-19T03:42:20;5.03;;;2.90;;
68365;SDS011;55283;51.466;5.478;2023-02-19T03:47:41;4.67;;;2.87;;
68365;SDS011;55283;51.466;5.478;2023-02-19T03:50:25;3.97;;;2.80;;
68365;SDS011;55283;51.466;5.478;2023-02-19T03:56:02;4.60;;;2.63;;
68365;SDS011;55283;51.466;5.478;2023-02-19T03:58:39;6.05;;;2.83;;
68365;SDS011;55283;51.466;5.478;2023-02-19T04:01:38;4.88;;;2.78;;
68365;SDS011;55283;51.466;5.478;2023-02-19T04:06:33;3.83;;;2.43;;
68365;SDS011;55283;51.466;5.478;2023-02-19T04:09:02;5.20;;;2.70;;
68365;SDS011;55283;51.466;5.478;2023-02-19T04:11:32;4.45;;;2.78;;
68365;SDS011;55283;51.466;5.478;2023-02-19T04:16:25;4.63;;;2.40;;
68365;SDS011;55283;51.466;5.478;2023-02-19T04:18:53;5.17;;;2.93;;
68365;SDS011;55283;51.466;5.478;2023-02-19T04:21:23;4.90;;;2.40;;
68365;SDS011;55283;51.466;5.478;2023-02-19T04:23:52;3.92;;;2.30;;
68365;SDS011;55283;51.466;5.478;2023-02-19T04:26:18;3.10;;;2.40;;
68365;SDS011;55283;51.466;5.478;2023-02-19T04:28:46;4.28;;;2.30;;
68365;SDS011;55283;51.466;5.478;2023-02-19T04:31:11;4.77;;;2.77;;
68365;SDS011;55283;51.466;5.478;2023-02-19T04:33:37;4.63;;;2.63;;
68365;SDS011;55283;51.466;5.478;2023-02-19T04:36:02;5.28;;;2.60;;
68365;SDS011;55283;51.466;5.478;2023-02-19T04:38:28;3.93;;;2.37;;
68365;SDS011;55283;51.466;5.478;2023-02-19T04:40:53;5.70;;;2.70;;
68365;SDS011;55283;51.466;5.478;2023-02-19T04:43:19;4.68;;;2.45;;
68365;SDS011;55283;51.466;5.478;2023-02-19T04:45:44;4.30;;;2.40;;
68365;SDS011;55283;51.466;5.478;2023-02-19T04:48:10;4.17;;;2.47;;
68365;SDS011;55283;51.466;5.478;2023-02-19T04:50:38;3.40;;;2.20;;
68365;SDS011;55283;51.466;5.478;2023-02-19T04:53:04;4.57;;;2.63;;
68365;SDS011;55283;51.466;5.478;2023-02-19T04:55:30;3.95;;;2.42;;
68365;SDS011;55283;51.466;5.478;2023-02-19T04:57:56;3.77;;;2.20;;
68365;SDS011;55283;51.466;5.478;2023-02-19T05:00:21;2.85;;;2.30;;
68365;SDS011;55283;51.466;5.478;2023-02-19T05:02:47;4.97;;;2.30;;
68365;SDS011;55283;51.466;5.478;2023-02-19T05:05:12;3.87;;;2.37;;
68365;SDS011;55283;51.466;5.478;2023-02-19T05:07:37;5.43;;;2.27;;
68365;SDS011;55283;51.466;5.478;2023-02-19T05:10:03;3.72;;;2.15;;
68365;SDS011;55283;51.466;5.478;2023-02-19T05:12:29;4.80;;;2.43;;
68365;SDS011;55283;51.466;5.478;2023-02-19T05:14:55;3.80;;;2.20;;
68365;SDS011;55283;51.466;5.478;2023-02-19T05:17:20;4.93;;;2.23;;
68365;SDS011;55283;51.466;5.478;2023-02-19T05:19:46;4.10;;;2.30;;
68365;SDS011;55283;51.466;5.478;2023-02-19T05:22:11;6.37;;;2.30;;
68365;SDS011;55283;51.466;5.478;2023-02-19T05:24:37;4.43;;;2.10;;
68365;SDS011;55283;51.466;5.478;2023-02-19T05:27:02;4.78;;;2.38;;
68365;SDS011;55283;51.466;5.478;2023-02-19T05:29:29;4.00;;;2.03;;
68365;SDS011;55283;51.466;5.478;2023-02-19T05:31:55;4.28;;;2.25;;
68365;SDS011;55283;51.466;5.478;2023-02-19T05:34:21;4.60;;;2.20;;
68365;SDS011;55283;51.466;5.478;2023-02-19T05:36:46;4.17;;;2.27;;
68365;SDS011;55283;51.466;5.478;2023-02-19T05:39:12;3.40;;;2.30;;
68365;SDS011;55283;51.466;5.478;2023-02-19T05:41:37;6.63;;;2.55;;
68365;SDS011;55283;51.466;5.478;2023-02-19T05:44:03;3.60;;;2.10;;
68365;SDS011;55283;51.466;5.478;2023-02-19T05:46:28;5.20;;;2.40;;
68365;SDS011;55283;51.466;5.478;2023-02-19T05:48:54;4.05;;;2.03;;
68365;SDS011;55283;51.466;5.478;2023-02-19T05:51:21;4.03;;;1.90;;
68365;SDS011;55283;51.466;5.478;2023-02-19T05:53:47;5.28;;;2.45;;
68365;SDS011;55283;51.466;5.478;2023-02-19T05:58:54;5.07;;;2.30;;
68365;SDS011;55283;51.466;5.478;2023-02-19T06:01:21;5.07;;;2.40;;
68365;SDS011;55283;51.466;5.478;2023-02-19T06:03:49;5.90;;;2.40;;
68365;SDS011;55283;51.466;5.478;2023-02-19T06:06:15;3.70;;;2.03;;
68365;SDS011;55283;51.466;5.478;2023-02-19T06:08:42;4.70;;;2.10;;
68365;SDS011;55283;51.466;5.478;2023-02-19T06:11:07;4.90;;;2.33;;
68365;SDS011;55283;51.466;5.478;2023-02-19T06:13:32;3.67;;;1.87;;
68365;SDS011;55283;51.466;5.478;2023-02-19T06:15:58;4.53;;;2.00;;
68365;SDS011;55283;51.466;5.478;2023-02-19T06:18:23;5.38;;;2.10;;
68365;SDS011;55283;51.466;5.478;2023-02-19T06:20:49;4.27;;;2.17;;
68365;SDS011;55283;51.466;5.478;2023-02-19T06:23:14;4.93;;;2.13;;
68365;SDS011;55283;51.466;5.478;2023-02-19T06:25:39;4.03;;;2.20;;
68365;SDS011;55283;51.466;5.478;2023-02-19T06:28:05;3.72;;;2.20;;
68365;SDS011;55283;51.466;5.478;2023-02-19T06:30:33;5.27;;;2.60;;
68365;SDS011;55283;51.466;5.478;2023-02-19T06:32:58;6.05;;;2.22;;
68365;SDS011;55283;51.466;5.478;2023-02-19T06:35:24;5.13;;;2.03;;
68365;SDS011;55283;51.466;5.478;2023-02-19T06:37:49;6.33;;;2.10;;
68365;SDS011;55283;51.466;5.478;2023-02-19T06:40:15;6.17;;;2.00;;
68365;SDS011;55283;51.466;5.478;2023-02-19T06:42:40;4.20;;;1.90;;
68365;SDS011;55283;51.466;5.478;2023-02-19T06:45:06;4.60;;;2.30;;
68365;SDS011;55283;51.466;5.478;2023-02-19T06:47:32;5.28;;;2.28;;
68365;SDS011;55283;51.466;5.478;2023-02-19T06:49:58;4.93;;;2.30;;
68365;SDS011;55283;51.466;5.478;2023-02-19T06:52:24;4.13;;;2.25;;
68365;SDS011;55283;51.466;5.478;2023-02-19T06:54:49;3.88;;;2.20;;
68365;SDS011;55283;51.466;5.478;2023-02-19T06:57:15;5.23;;;2.17;;
68365;SDS011;55283;51.466;5.478;2023-02-19T06:59:40;4.33;;;1.97;;
68365;SDS011;55283;51.466;5.478;2023-02-19T07:02:06;5.77;;;2.03;;
68365;SDS011;55283;51.466;5.478;2023-02-19T07:04:34;4.25;;;2.33;;
68365;SDS011;55283;51.466;5.478;2023-02-19T07:06:59;5.07;;;2.40;;
68365;SDS011;55283;51.466;5.478;2023-02-19T07:09:25;4.18;;;1.70;;
68365;SDS011;55283;51.466;5.478;2023-02-19T07:11:52;4.43;;;1.97;;
68365;SDS011;55283;51.466;5.478;2023-02-19T07:14:17;4.05;;;2.10;;
68365;SDS011;55283;51.466;5.478;2023-02-19T07:16:43;3.70;;;1.87;;
68365;SDS011;55283;51.466;5.478;2023-02-19T07:19:11;4.22;;;1.92;;
68365;SDS011;55283;51.466;5.478;2023-02-19T07:21:37;5.17;;;2.00;;
68365;SDS011;55283;51.466;5.478;2023-02-19T07:24:03;4.47;;;1.90;;
68365;SDS011;55283;51.466;5.478;2023-02-19T07:26:29;3.67;;;2.03;;
68365;SDS011;55283;51.466;5.478;2023-02-19T07:28:55;5.67;;;1.93;;
68365;SDS011;55283;51.466;5.478;2023-02-19T07:31:21;4.87;;;1.90;;
68365;SDS011;55283;51.466;5.478;2023-02-19T07:33:48;6.53;;;1.98;;
68365;SDS011;55283;51.466;5.478;2023-02-19T07:36:14;6.55;;;2.38;;
68365;SDS011;55283;51.466;5.478;2023-02-19T07:38:41;6.87;;;2.20;;
68365;SDS011;55283;51.466;5.478;2023-02-19T07:41:07;7.63;;;2.20;;
68365;SDS011;55283;51.466;5.478;2023-02-19T07:43:33;7.50;;;2.03;;
68365;SDS011;55283;51.466;5.478;2023-02-19T07:46:07;8.93;;;2.30;;
68365;SDS011;55283;51.466;5.478;2023-02-19T07:48:35;6.47;;;2.38;;
68365;SDS011;55283;51.466;5.478;2023-02-19T07:51:02;6.50;;;2.30;;
68365;SDS011;55283;51.466;5.478;2023-02-19T07:53:28;7.55;;;2.35;;
68365;SDS011;55283;51.466;5.478;2023-02-19T07:55:58;6.43;;;2.35;;
68365;SDS011;55283;51.466;5.478;2023-02-19T07:58:25;8.80;;;2.40;;
68365;SDS011;55283;51.466;5.478;2023-02-19T08:00:51;9.07;;;2.10;;
68365;SDS011;55283;51.466;5.478;2023-02-19T08:03:16;6.77;;;2.20;;
68365;SDS011;55283;51.466;5.478;2023-02-19T08:05:42;5.90;;;2.17;;
68365;SDS011;55283;51.466;5.478;2023-02-19T08:08:08;8.85;;;2.45;;
68365;SDS011;55283;51.466;5.478;2023-02-19T08:10:35;8.00;;;2.07;;
68365;SDS011;55283;51.466;5.478;2023-02-19T08:13:19;6.32;;;2.00;;
68365;SDS011;55283;51.466;5.478;2023-02-19T08:15:50;5.95;;;2.00;;
68365;SDS011;55283;51.466;5.478;2023-02-19T08:18:21;4.77;;;1.93;;
68365;SDS011;55283;51.466;5.478;2023-02-19T08:20:48;4.72;;;1.80;;
68365;SDS011;55283;51.466;5.478;2023-02-19T08:23:14;6.43;;;1.77;;
68365;SDS011;55283;51.466;5.478;2023-02-19T08:25:40;8.48;;;2.08;;
68365;SDS011;55283;51.466;5.478;2023-02-19T08:28:06;6.68;;;2.15;;
68365;SDS011;55283;51.466;5.478;2023-02-19T08:30:33;7.53;;;1.90;;
68365;SDS011;55283;51.466;5.478;2023-02-19T08:32:59;4.88;;;1.77;;
68365;SDS011;55283;51.466;5.478;2023-02-19T08:35:26;6.17;;;1.80;;
68365;SDS011;55283;51.466;5.478;2023-02-19T08:37:56;3.55;;;1.70;;
68365;SDS011;55283;51.466;5.478;2023-02-19T08:40:23;7.47;;;1.90;;
68365;SDS011;55283;51.466;5.478;2023-02-19T08:42:49;6.72;;;2.10;;
68365;SDS011;55283;51.466;5.478;2023-02-19T08:45:14;5.57;;;1.90;;
68365;SDS011;55283;51.466;5.478;2023-02-19T08:47:40;4.13;;;1.50;;
68365;SDS011;55283;51.466;5.478;2023-02-19T08:50:06;4.93;;;1.80;;
68365;SDS011;55283;51.466;5.478;2023-02-19T08:52:32;3.70;;;1.95;;
68365;SDS011;55283;51.466;5.478;2023-02-19T08:54:58;5.43;;;1.63;;
68365;SDS011;55283;51.466;5.478;2023-02-19T08:57:23;4.28;;;1.80;;
68365;SDS011;55283;51.466;5.478;2023-02-19T08:59:49;5.43;;;1.60;;
68365;SDS011;55283;51.466;5.478;2023-02-19T09:02:15;4.40;;;1.98;;
68365;SDS011;55283;51.466;5.478;2023-02-19T09:04:41;5.43;;;1.80;;
68365;SDS011;55283;51.466;5.478;2023-02-19T09:07:06;4.53;;;1.73;;
68365;SDS011;55283;51.466;5.478;2023-02-19T09:09:35;5.17;;;1.87;;
68365;SDS011;55283;51.466;5.478;2023-02-19T09:12:03;4.65;;;1.85;;
68365;SDS011;55283;51.466;5.478;2023-02-19T09:14:32;4.10;;;1.45;;
68365;SDS011;55283;51.466;5.478;2023-02-19T09:16:58;4.97;;;1.67;;
68365;SDS011;55283;51.466;5.478;2023-02-19T09:19:24;6.10;;;1.90;;
68365;SDS011;55283;51.466;5.478;2023-02-19T09:21:50;6.35;;;1.88;;
68365;SDS011;55283;51.466;5.478;2023-02-19T09:24:16;4.20;;;1.83;;
68365;SDS011;55283;51.466;5.478;2023-02-19T09:26:41;5.30;;;2.00;;
68365;SDS011;55283;51.466;5.478;2023-02-19T09:29:06;4.57;;;1.90;;
68365;SDS011;55283;51.466;5.478;2023-02-19T09:31:32;5.43;;;2.73;;
68365;SDS011;55283;51.466;5.478;2023-02-19T09:33:59;6.33;;;2.13;;
68365;SDS011;55283;51.466;5.478;2023-02-19T09:36:24;4.95;;;2.15;;
68365;SDS011;55283;51.466;5.478;2023-02-19T09:38:50;6.47;;;1.90;;
68365;SDS011;55283;51.466;5.478;2023-02-19T09:42:16;3.87;;;1.77;;
68365;SDS011;55283;51.466;5.478;2023-02-19T09:44:15;3.90;;;1.88;;
68365;SDS011;55283;51.466;5.478;2023-02-19T09:46:48;7.47;;;2.10;;
68365;SDS011;55283;51.466;5.478;2023-02-19T09:49:20;3.93;;;1.70;;
68365;SDS011;55283;51.466;5.478;2023-02-19T09:51:49;4.97;;;1.67;;
68365;SDS011;55283;51.466;5.478;2023-02-19T09:54:25;3.92;;;1.70;;
68365;SDS011;55283;51.466;5.478;2023-02-19T09:56:53;3.77;;;1.53;;
68365;SDS011;55283;51.466;5.478;2023-02-19T09:59:23;4.15;;;2.00;;
68365;SDS011;55283;51.466;5.478;2023-02-19T10:01:53;4.97;;;1.60;;
68365;SDS011;55283;51.466;5.478;2023-02-19T10:04:37;4.20;;;1.60;;
68365;SDS011;55283;51.466;5.478;2023-02-19T10:07:08;3.78;;;1.75;;
68365;SDS011;55283;51.466;5.478;2023-02-19T10:09:36;4.05;;;1.70;;
68365;SDS011;55283;51.466;5.478;2023-02-19T10:12:02;3.20;;;1.90;;
68365;SDS011;55283;51.466;5.478;2023-02-19T10:14:38;4.00;;;1.77;;
68365;SDS011;55283;51.466;5.478;2023-02-19T10:17:10;3.92;;;1.73;;
68365;SDS011;55283;51.466;5.478;2023-02-19T10:19:45;5.97;;;1.88;;
68365;SDS011;55283;51.466;5.478;2023-02-19T10:22:11;5.77;;;1.70;;
68365;SDS011;55283;51.466;5.478;2023-02-19T10:24:37;4.10;;;1.60;;
68365;SDS011;55283;51.466;5.478;2023-02-19T10:27:13;3.00;;;1.50;;
68365;SDS011;55283;51.466;5.478;2023-02-19T10:29:41;5.05;;;1.80;;
68365;SDS011;55283;51.466;5.478;2023-02-19T10:32:26;3.47;;;1.75;;
68365;SDS011;55283;51.466;5.478;2023-02-19T10:35:08;3.10;;;1.70;;
68365;SDS011;55283;51.466;5.478;2023-02-19T10:37:34;5.32;;;1.80;;
68365;SDS011;55283;51.466;5.478;2023-02-19T10:40:00;2.53;;;1.65;;
68365;SDS011;55283;51.466;5.478;2023-02-19T10:42:26;4.47;;;1.75;;
68365;SDS011;55283;51.466;5.478;2023-02-19T10:44:56;3.50;;;1.60;;
68365;SDS011;55283;51.466;5.478;2023-02-19T10:47:26;4.05;;;1.50;;
68365;SDS011;55283;51.466;5.478;2023-02-19T10:49:57;2.30;;;1.57;;
68365;SDS011;55283;51.466;5.478;2023-02-19T10:52:28;4.25;;;1.67;;
68365;SDS011;55283;51.466;5.478;2023-02-19T10:55:14;3.20;;;1.70;;
68365;SDS011;55283;51.466;5.478;2023-02-19T10:57:48;3.67;;;1.80;;
68365;SDS011;55283;51.466;5.478;2023-02-19T11:02:40;3.20;;;1.70;;
68365;SDS011;55283;51.466;5.478;2023-02-19T11:07:45;4.05;;;1.65;;
68365;SDS011;55283;51.466;5.478;2023-02-19T11:10:45;3.17;;;1.55;;
68365;SDS011;55283;51.466;5.478;2023-02-19T11:13:06;5.35;;;1.70;;
68365;SDS011;55283;51.466;5.478;2023-02-19T11:15:49;3.63;;;1.70;;
68365;SDS011;55283;51.466;5.478;2023-02-19T11:18:34;2.65;;;1.60;;
68365;SDS011;55283;51.466;5.478;2023-02-19T11:21:04;3.50;;;1.50;;
68365;SDS011;55283;51.466;5.478;2023-02-19T11:23:36;4.37;;;1.70;;
68365;SDS011;55283;51.466;5.478;2023-02-19T11:26:29;4.32;;;1.60;;
68365;SDS011;55283;51.466;5.478;2023-02-19T11:29:00;4.05;;;1.77;;
68365;SDS011;55283;51.466;5.478;2023-02-19T11:31:35;2.50;;;1.70;;
68365;SDS011;55283;51.466;5.478;2023-02-19T11:36:29;4.18;;;2.10;;
68365;SDS011;55283;51.466;5.478;2023-02-19T11:38:57;5.45;;;2.03;;
68365;SDS011;55283;51.466;5.478;2023-02-19T11:44:16;3.17;;;1.73;;
68365;SDS011;55283;51.466;5.478;2023-02-19T11:50:02;4.73;;;1.80;;
68365;SDS011;55283;51.466;5.478;2023-02-19T11:52:51;7.97;;;3.60;;
68365;SDS011;55283;51.466;5.478;2023-02-19T11:58:28;4.63;;;2.40;;
68365;SDS011;55283;51.466;5.478;2023-02-19T12:03:48;4.05;;;1.92;;
68365;SDS011;55283;51.466;5.478;2023-02-19T12:06:43;5.10;;;2.20;;
68365;SDS011;55283;51.466;5.478;2023-02-19T12:17:46;5.10;;;2.33;;
68365;SDS011;55283;51.466;5.478;2023-02-19T12:23:23;3.88;;;2.35;;
68365;SDS011;55283;51.466;5.478;2023-02-19T12:29:06;4.45;;;1.95;;
68365;SDS011;55283;51.466;5.478;2023-02-19T12:34:53;3.80;;;2.13;;
68365;SDS011;55283;51.466;5.478;2023-02-19T12:37:46;4.33;;;2.10;;
68365;SDS011;55283;51.466;5.478;2023-02-19T12:50:54;4.27;;;2.00;;
68365;SDS011;55283;51.466;5.478;2023-02-19T12:56:04;3.58;;;2.00;;
68365;SDS011;55283;51.466;5.478;2023-02-19T12:58:41;3.50;;;1.97;;
68365;SDS011;55283;51.466;5.478;2023-02-19T13:01:12;4.70;;;2.10;;
68365;SDS011;55283;51.466;5.478;2023-02-19T13:03:46;4.05;;;2.00;;
68365;SDS011;55283;51.466;5.478;2023-02-19T13:09:06;3.23;;;2.10;;
68365;SDS011;55283;51.466;5.478;2023-02-19T13:11:37;2.78;;;2.03;;
68365;SDS011;55283;51.466;5.478;2023-02-19T13:14:14;3.05;;;1.60;;
68365;SDS011;55283;51.466;5.478;2023-02-19T13:16:43;5.70;;;1.90;;
68365;SDS011;55283;51.466;5.478;2023-02-19T13:19:12;2.95;;;1.90;;
68365;SDS011;55283;51.466;5.478;2023-02-19T13:21:39;2.55;;;1.88;;
68365;SDS011;55283;51.466;5.478;2023-02-19T13:24:25;3.17;;;1.83;;
68365;SDS011;55283;51.466;5.478;2023-02-19T13:29:45;3.10;;;1.77;;
68365;SDS011;55283;51.466;5.478;2023-02-19T13:37:48;3.08;;;1.80;;
68365;SDS011;55283;51.466;5.478;2023-02-19T13:40:17;3.70;;;1.75;;
68365;SDS011;55283;51.466;5.478;2023-02-19T13:43:02;3.10;;;1.60;;
68365;SDS011;55283;51.466;5.478;2023-02-19T13:45:35;2.92;;;1.77;;
68365;SDS011;55283;51.466;5.478;2023-02-19T13:48:24;6.03;;;1.70;;
68365;SDS011;55283;51.466;5.478;2023-02-19T14:19:43;3.08;;;1.60;;
68365;SDS011;55283;51.466;5.478;2023-02-19T14:27:54;2.37;;;1.67;;
68365;SDS011;55283;51.466;5.478;2023-02-19T14:30:24;3.97;;;1.70;;
68365;SDS011;55283;51.466;5.478;2023-02-19T14:32:50;3.17;;;1.60;;
68365;SDS011;55283;51.466;5.478;2023-02-19T14:35:26;2.60;;;1.50;;
68365;SDS011;55283;51.466;5.478;2023-02-19T14:37:57;2.35;;;1.50;;
68365;SDS011;55283;51.466;5.478;2023-02-19T14:40:26;2.17;;;1.43;;
68365;SDS011;55283;51.466;5.478;2023-02-19T14:42:57;3.20;;;1.35;;
68365;SDS011;55283;51.466;5.478;2023-02-19T14:45:24;3.05;;;1.50;;
68365;SDS011;55283;51.466;5.478;2023-02-19T14:47:52;3.90;;;1.50;;
68365;SDS011;55283;51.466;5.478;2023-02-19T14:50:25;1.83;;;1.30;;
68365;SDS011;55283;51.466;5.478;2023-02-19T14:52:53;2.17;;;1.40;;
68365;SDS011;55283;51.466;5.478;2023-02-19T14:55:28;2.23;;;1.50;;
68365;SDS011;55283;51.466;5.478;2023-02-19T14:57:57;2.78;;;1.50;;
68365;SDS011;55283;51.466;5.478;2023-02-19T15:00:29;1.90;;;1.55;;
68365;SDS011;55283;51.466;5.478;2023-02-19T15:03:01;2.92;;;1.40;;
68365;SDS011;55283;51.466;5.478;2023-02-19T15:05:31;3.27;;;1.50;;
68365;SDS011;55283;51.466;5.478;2023-02-19T15:08:02;2.50;;;1.63;;
68365;SDS011;55283;51.466;5.478;2023-02-19T15:10:33;2.30;;;1.30;;
68365;SDS011;55283;51.466;5.478;2023-02-19T15:13:00;2.70;;;1.30;;
68365;SDS011;55283;51.466;5.478;2023-02-19T15:15:29;2.47;;;1.67;;
68365;SDS011;55283;51.466;5.478;2023-02-19T15:18:01;2.95;;;1.63;;
68365;SDS011;55283;51.466;5.478;2023-02-19T15:20:30;2.40;;;1.50;;
68365;SDS011;55283;51.466;5.478;2023-02-19T15:22:58;2.67;;;1.40;;
68365;SDS011;55283;51.466;5.478;2023-02-19T15:25:31;2.90;;;1.42;;
68365;SDS011;55283;51.466;5.478;2023-02-19T15:28:17;7.43;;;1.42;;
68365;SDS011;55283;51.466;5.478;2023-02-19T15:30:42;2.57;;;1.33;;
68365;SDS011;55283;51.466;5.478;2023-02-19T15:33:18;2.35;;;1.20;;
68365;SDS011;55283;51.466;5.478;2023-02-19T15:35:51;4.03;;;1.70;;
68365;SDS011;55283;51.466;5.478;2023-02-19T15:38:19;2.78;;;1.55;;
68365;SDS011;55283;51.466;5.478;2023-02-19T15:40:46;2.55;;;1.50;;
68365;SDS011;55283;51.466;5.478;2023-02-19T15:43:55;2.03;;;1.30;;
68365;SDS011;55283;51.466;5.478;2023-02-19T15:46:08;3.00;;;1.52;;
68365;SDS011;55283;51.466;5.478;2023-02-19T15:48:47;1.90;;;1.38;;
68365;SDS011;55283;51.466;5.478;2023-02-19T15:51:22;2.03;;;1.40;;
68365;SDS011;55283;51.466;5.478;2023-02-19T15:53:53;3.30;;;1.38;;
68365;SDS011;55283;51.466;5.478;2023-02-19T15:56:27;5.75;;;1.50;;
68365;SDS011;55283;51.466;5.478;2023-02-19T15:58:58;2.05;;;1.42;;
68365;SDS011;55283;51.466;5.478;2023-02-19T16:01:37;3.47;;;1.50;;
68365;SDS011;55283;51.466;5.478;2023-02-19T16:04:14;4.07;;;1.33;;
68365;SDS011;55283;51.466;5.478;2023-02-19T16:06:51;4.18;;;1.40;;
68365;SDS011;55283;51.466;5.478;2023-02-19T16:09:28;3.10;;;1.40;;
68365;SDS011;55283;51.466;5.478;2023-02-19T16:12:00;5.32;;;1.40;;
68365;SDS011;55283;51.466;5.478;2023-02-19T16:14:33;2.70;;;1.40;;
68365;SDS011;55283;51.466;5.478;2023-02-19T16:19:29;2.13;;;1.30;;
68365;SDS011;55283;51.466;5.478;2023-02-19T16:21:58;4.80;;;1.27;;
68365;SDS011;55283;51.466;5.478;2023-02-19T16:24:29;2.30;;;1.20;;
68365;SDS011;55283;51.466;5.478;2023-02-19T16:26:58;2.33;;;1.20;;
68365;SDS011;55283;51.466;5.478;2023-02-19T16:29:26;2.75;;;1.30;;
68365;SDS011;55283;51.466;5.478;2023-02-19T16:31:56;2.85;;;1.38;;
68365;SDS011;55283;51.466;5.478;2023-02-19T16:37:27;2.15;;;1.55;;
68365;SDS011;55283;51.466;5.478;2023-02-19T16:42:32;1.83;;;1.20;;
68365;SDS011;55283;51.466;5.478;2023-02-19T16:45:00;1.80;;;1.30;;
68365;SDS011;55283;51.466;5.478;2023-02-19T16:47:33;2.73;;;1.17;;
68365;SDS011;55283;51.466;5.478;2023-02-19T16:50:02;2.83;;;1.40;;
68365;SDS011;55283;51.466;5.478;2023-02-19T16:52:31;1.40;;;1.30;;
68365;SDS011;55283;51.466;5.478;2023-02-19T16:54:57;2.50;;;1.35;;
68365;SDS011;55283;51.466;5.478;2023-02-19T16:57:22;1.80;;;1.30;;
68365;SDS011;55283;51.466;5.478;2023-02-19T16:59:48;1.40;;;1.10;;
68365;SDS011;55283;51.466;5.478;2023-02-19T17:02:14;2.10;;;1.30;;
68365;SDS011;55283;51.466;5.478;2023-02-19T17:04:44;1.90;;;1.30;;
68365;SDS011;55283;51.466;5.478;2023-02-19T17:07:11;4.47;;;1.38;;
68365;SDS011;55283;51.466;5.478;2023-02-19T17:09:39;2.78;;;1.30;;
68365;SDS011;55283;51.466;5.478;2023-02-19T17:12:09;3.73;;;1.30;;
68365;SDS011;55283;51.466;5.478;2023-02-19T17:14:36;1.88;;;1.30;;
68365;SDS011;55283;51.466;5.478;2023-02-19T17:17:02;2.10;;;1.20;;
68365;SDS011;55283;51.466;5.478;2023-02-19T17:19:28;1.90;;;1.40;;
68365;SDS011;55283;51.466;5.478;2023-02-19T17:21:53;2.03;;;1.10;;
68365;SDS011;55283;51.466;5.478;2023-02-19T17:24:18;3.67;;;1.30;;
68365;SDS011;55283;51.466;5.478;2023-02-19T17:26:44;2.50;;;1.30;;